createdAt,value
2023-04-22T00:00:50.591Z,10.97
2023-04-22T00:03:18.937Z,10.96
2023-04-22T00:05:47.510Z,10.95
2023-04-22T00:08:16.080Z,10.96
2023-04-22T00:10:44.250Z,11.01
2023-04-22T00:13:12.418Z,10.96
2023-04-22T00:15:40.518Z,10.90
2023-04-22T00:18:14.022Z,10.85
2023-04-22T00:20:42.940Z,10.82
2023-04-22T00:23:11.608Z,10.81
2023-04-22T00:25:40.338Z,10.82
2023-04-22T00:28:08.473Z,10.72
2023-04-22T00:30:36.595Z,10.68
2023-04-22T00:33:04.888Z,10.65
2023-04-22T00:35:34.759Z,10.64
2023-04-22T00:38:02.928Z,10.59
2023-04-22T00:40:31.140Z,10.56
2023-04-22T00:42:59.261Z,10.49
2023-04-22T00:45:27.465Z,10.41
2023-04-22T00:47:56.137Z,10.36
2023-04-22T00:50:24.256Z,10.43
2023-04-22T00:52:53.761Z,10.36
2023-04-22T00:55:21.972Z,10.28
2023-04-22T00:57:50.460Z,10.18
2023-04-22T01:00:20.105Z,10.08
2023-04-22T01:02:48.922Z,10.04
2023-04-22T01:05:17.126Z,10.09
2023-04-22T01:07:45.580Z,10.07
2023-04-22T01:10:15.347Z,10.03
2023-04-22T01:12:43.435Z,9.96
2023-04-22T01:15:12.957Z,10.00
2023-04-22T01:17:41.041Z,10.02
2023-04-22T01:20:10.833Z,10.15
2023-04-22T01:22:42.379Z,10.09
2023-04-22T01:25:12.445Z,10.04
2023-04-22T01:27:40.653Z,10.08
2023-04-22T01:30:10.028Z,10.16
2023-04-22T01:32:40.699Z,10.22
2023-04-22T01:35:09.500Z,10.21
2023-04-22T01:37:37.689Z,10.13
2023-04-22T01:40:07.455Z,10.15
2023-04-22T01:42:37.307Z,10.25
2023-04-22T01:45:06.094Z,10.29
2023-04-22T01:47:34.261Z,10.30
2023-04-22T01:50:02.412Z,10.37
2023-04-22T01:52:30.591Z,10.39
2023-04-22T01:54:58.962Z,10.34
2023-04-22T01:57:27.390Z,10.31
2023-04-22T01:59:58.610Z,10.38
2023-04-22T02:02:26.921Z,10.33
2023-04-22T02:04:55.133Z,10.36
2023-04-22T02:07:23.268Z,10.37
2023-04-22T02:09:51.829Z,10.42
2023-04-22T02:12:20.007Z,10.46
2023-04-22T02:14:48.083Z,10.41
2023-04-22T02:17:18.040Z,10.27
2023-04-22T02:19:47.624Z,10.16
2023-04-22T02:22:15.792Z,10.19
2023-04-22T02:24:44.366Z,10.18
2023-04-22T02:27:12.530Z,10.16
2023-04-22T02:29:42.010Z,10.36
2023-04-22T02:32:10.697Z,10.29
2023-04-22T02:34:40.180Z,10.17
2023-04-22T02:37:08.830Z,10.23
2023-04-22T02:39:37.229Z,10.15
2023-04-22T02:42:05.727Z,10.09
2023-04-22T02:44:33.920Z,10.07
2023-04-22T02:47:03.881Z,10.07
2023-04-22T02:49:32.435Z,10.11
2023-04-22T02:52:01.969Z,10.12
2023-04-22T02:54:30.114Z,10.16
2023-04-22T02:56:58.613Z,10.17
2023-04-22T02:59:26.843Z,10.19
2023-04-22T03:01:55.495Z,10.19
2023-04-22T03:04:46.941Z,10.07
2023-04-22T03:07:16.598Z,10.01
2023-04-22T03:09:44.810Z,10.02
2023-04-22T03:12:12.947Z,10.05
2023-04-22T03:14:41.103Z,10.03
2023-04-22T03:17:09.854Z,10.02
2023-04-22T03:19:38.877Z,10.04
2023-04-22T03:22:07.686Z,10.03
2023-04-22T03:24:37.545Z,10.12
2023-04-22T03:27:08.356Z,10.12
2023-04-22T03:29:36.565Z,10.14
2023-04-22T03:32:05.142Z,10.20
2023-04-22T03:34:35.858Z,10.26
2023-04-22T03:37:06.278Z,10.26
2023-04-22T03:39:34.416Z,10.28
2023-04-22T03:42:04.419Z,10.32
2023-04-22T03:44:34.041Z,10.28
2023-04-22T03:47:03.337Z,10.11
2023-04-22T03:49:37.733Z,10.17
2023-04-22T03:52:06.221Z,10.17
2023-04-22T03:54:36.371Z,10.12
2023-04-22T03:57:06.397Z,10.14
2023-04-22T03:59:34.615Z,10.15
2023-04-22T04:02:02.981Z,10.14
2023-04-22T04:04:32.696Z,10.18
2023-04-22T04:07:02.501Z,10.13
2023-04-22T04:09:31.353Z,10.11
2023-04-22T04:11:59.923Z,10.12
2023-04-22T04:14:33.786Z,10.16
2023-04-22T04:17:03.708Z,10.26
2023-04-22T04:19:34.784Z,10.31
2023-04-22T04:22:04.472Z,10.36
2023-04-22T04:24:42.201Z,10.36
2023-04-22T04:27:17.021Z,10.36
2023-04-22T04:29:53.201Z,10.36
2023-04-22T04:32:35.733Z,10.41
2023-04-22T04:35:09.926Z,10.40
2023-04-22T04:37:40.408Z,10.48
2023-04-22T04:40:12.347Z,10.51
2023-04-22T04:42:48.924Z,10.52
2023-04-22T04:45:24.263Z,10.58
2023-04-22T04:47:54.748Z,10.65
2023-04-22T04:50:28.253Z,10.70
2023-04-22T04:53:01.643Z,10.91
2023-04-22T04:55:36.452Z,10.94
2023-04-22T04:58:09.178Z,10.96
2023-04-22T05:00:38.740Z,11.03
2023-04-22T05:03:07.303Z,11.16
2023-04-22T05:05:36.466Z,11.23
2023-04-22T05:08:04.939Z,11.30
2023-04-22T05:10:39.858Z,11.35
2023-04-22T05:13:08.024Z,11.46
2023-04-22T05:15:38.145Z,11.62
2023-04-22T05:18:06.657Z,11.70
2023-04-22T05:20:36.218Z,11.70
2023-04-22T05:23:05.575Z,11.74
2023-04-22T05:25:33.982Z,11.79
2023-04-22T05:28:07.593Z,11.84
2023-04-22T05:30:45.744Z,11.87
2023-04-22T05:33:14.501Z,11.92
2023-04-22T05:35:42.588Z,11.94
2023-04-22T05:38:11.843Z,11.94
2023-04-22T05:40:41.786Z,11.94
2023-04-22T05:43:13.110Z,12.03
2023-04-22T05:45:45.218Z,12.16
2023-04-22T05:48:16.492Z,12.23
2023-04-22T05:50:55.436Z,12.35
2023-04-22T05:53:23.526Z,12.43
2023-04-22T05:55:51.964Z,12.50
2023-04-22T05:58:20.128Z,12.63
2023-04-22T06:00:54.833Z,12.67
2023-04-22T06:03:41.381Z,12.78
2023-04-22T06:06:09.795Z,12.88
2023-04-22T06:08:37.901Z,13.00
2023-04-22T06:11:06.147Z,13.08
2023-04-22T06:13:37.230Z,13.18
2023-04-22T06:18:38.188Z,13.37
2023-04-22T06:21:10.633Z,13.52
2023-04-22T06:23:38.889Z,13.65
2023-04-22T06:26:07.538Z,13.80
2023-04-22T06:28:37.328Z,13.95
2023-04-22T06:31:14.431Z,14.02
2023-04-22T06:33:42.887Z,14.07
2023-04-22T06:36:11.475Z,14.16
2023-04-22T06:38:40.093Z,14.31
2023-04-22T06:41:42.029Z,14.52
2023-04-22T06:44:25.903Z,14.61
2023-04-22T06:47:21.964Z,14.65
2023-04-22T06:49:59.972Z,14.74
2023-04-22T06:52:36.345Z,14.83
2023-04-22T06:55:05.415Z,14.82
2023-04-22T06:57:33.587Z,14.86
2023-04-22T07:00:01.732Z,14.96
2023-04-22T07:02:32.511Z,15.06
2023-04-22T07:05:01.173Z,15.26
2023-04-22T07:07:29.649Z,15.34
2023-04-22T07:09:57.848Z,15.37
2023-04-22T07:12:29.028Z,15.50
2023-04-22T07:14:57.326Z,15.56
2023-04-22T07:17:25.494Z,15.66
2023-04-22T07:19:55.029Z,15.71
2023-04-22T07:22:23.107Z,15.73
2023-04-22T07:24:51.205Z,15.73
2023-04-22T07:27:19.347Z,15.87
2023-04-22T07:29:47.462Z,15.98
2023-04-22T07:32:15.568Z,16.12
2023-04-22T07:34:44.247Z,16.15
2023-04-22T07:37:13.765Z,16.22
2023-04-22T07:39:42.253Z,16.38
2023-04-22T07:42:10.515Z,16.48
2023-04-22T07:44:39.594Z,16.52
2023-04-22T07:47:08.907Z,16.73
2023-04-22T07:49:37.200Z,16.83
2023-04-22T07:52:05.613Z,16.92
2023-04-22T07:54:35.169Z,17.12
2023-04-22T07:57:03.266Z,17.12
2023-04-22T07:59:31.349Z,17.10
2023-04-22T08:01:59.847Z,17.04
2023-04-22T08:04:28.335Z,17.06
2023-04-22T08:06:57.556Z,17.14
2023-04-22T08:09:25.778Z,17.21
2023-04-22T08:11:55.380Z,17.26
2023-04-22T08:14:23.864Z,17.24
2023-04-22T08:16:52.776Z,17.31
2023-04-22T08:19:20.915Z,17.47
2023-04-22T08:21:49.561Z,17.54
2023-04-22T08:24:17.615Z,17.50
2023-04-22T08:26:45.720Z,17.60
2023-04-22T08:29:15.552Z,17.67
2023-04-22T08:31:43.774Z,17.73
2023-04-22T08:34:12.162Z,17.79
2023-04-22T08:36:40.342Z,17.84
2023-04-22T08:39:08.420Z,17.94
2023-04-22T08:41:37.076Z,17.95
2023-04-22T08:44:05.232Z,17.88
2023-04-22T08:46:34.846Z,17.90
2023-04-22T08:49:04.033Z,17.96
2023-04-22T08:51:33.579Z,18.04
2023-04-22T08:54:02.288Z,18.14
2023-04-22T08:56:30.426Z,18.19
2023-04-22T08:58:58.529Z,18.28
2023-04-22T09:01:26.714Z,18.48
2023-04-22T09:03:56.308Z,18.44
2023-04-22T09:06:24.507Z,18.43
2023-04-22T09:08:52.944Z,18.50
2023-04-22T09:11:21.070Z,18.65
2023-04-22T09:13:49.225Z,18.75
2023-04-22T09:16:17.369Z,18.94
2023-04-22T09:18:46.177Z,19.16
2023-04-22T09:21:15.674Z,19.30
2023-04-22T09:23:48.484Z,19.50
2023-04-22T09:26:18.362Z,19.51
2023-04-22T09:28:50.959Z,19.57
2023-04-22T09:31:19.115Z,19.76
2023-04-22T09:33:51.766Z,20.05
2023-04-22T09:36:24.837Z,20.33
2023-04-22T09:38:54.174Z,20.45
2023-04-22T09:41:28.838Z,20.85
2023-04-22T09:43:57.928Z,21.05
2023-04-22T09:46:26.520Z,21.05
2023-04-22T09:48:55.919Z,20.79
2023-04-22T09:51:25.495Z,20.69
2023-04-22T09:54:00.800Z,21.02
2023-04-22T09:56:42.376Z,21.26
2023-04-22T09:59:10.539Z,21.69
2023-04-22T10:01:40.274Z,21.91
2023-04-22T10:04:09.931Z,22.14
2023-04-22T10:06:39.599Z,22.56
2023-04-22T10:09:09.409Z,22.74
2023-04-22T10:11:37.718Z,22.63
2023-04-22T10:14:05.862Z,22.61
2023-04-22T10:16:35.008Z,22.85
2023-04-22T10:19:04.571Z,22.88
2023-04-22T10:21:32.844Z,22.93
2023-04-22T10:24:02.438Z,23.07
2023-04-22T10:26:50.361Z,23.14
2023-04-22T10:29:19.203Z,23.28
2023-04-22T10:31:52.749Z,23.32
2023-04-22T10:34:20.907Z,23.27
2023-04-22T10:36:56.068Z,23.47
2023-04-22T10:39:25.685Z,23.59
2023-04-22T10:42:07.426Z,23.66
2023-04-22T10:44:48.044Z,23.65
2023-04-22T10:47:29.298Z,23.70
2023-04-22T10:50:14.573Z,23.67
2023-04-22T10:52:43.942Z,23.73
2023-04-22T10:55:13.397Z,23.92
2023-04-22T10:57:42.603Z,24.02
2023-04-22T11:00:52.396Z,23.94
2023-04-22T11:03:26.888Z,24.30
2023-04-22T11:06:16.213Z,24.51
2023-04-22T11:08:46.036Z,24.30
2023-04-22T11:11:15.841Z,24.51
2023-04-22T11:13:45.542Z,24.72
2023-04-22T11:16:13.657Z,24.90
2023-04-22T11:18:41.804Z,25.00
2023-04-22T11:21:10.286Z,24.66
2023-04-22T11:23:38.381Z,24.93
2023-04-22T11:26:07.220Z,24.42
2023-04-22T11:28:37.385Z,24.26
2023-04-22T11:31:06.564Z,24.19
2023-04-22T11:33:35.535Z,24.13
2023-04-22T11:36:03.670Z,24.40
2023-04-22T11:38:33.157Z,24.45
2023-04-22T11:41:01.261Z,24.18
2023-04-22T11:43:29.392Z,24.25
2023-04-22T11:45:58.990Z,24.36
2023-04-22T11:48:27.376Z,24.19
2023-04-22T11:51:09.883Z,24.18
2023-04-22T11:53:39.581Z,24.04
2023-04-22T11:56:07.778Z,24.23
2023-04-22T11:58:38.712Z,24.24
2023-04-22T12:01:08.273Z,24.05
2023-04-22T12:03:36.587Z,23.83
2023-04-22T12:06:05.842Z,23.68
2023-04-22T12:08:35.636Z,23.70
2023-04-22T12:11:05.193Z,23.20
2023-04-22T12:13:34.762Z,22.81
2023-04-22T12:16:04.583Z,22.59
2023-04-22T12:18:34.530Z,22.54
2023-04-22T12:21:03.644Z,22.25
2023-04-22T12:23:31.814Z,22.00
2023-04-22T12:26:00.146Z,22.00
2023-04-22T12:28:28.273Z,22.35
2023-04-22T12:30:56.480Z,22.14
2023-04-22T12:33:24.907Z,21.97
2023-04-22T12:35:54.437Z,21.89
2023-04-22T12:38:22.556Z,21.86
2023-04-22T12:40:51.125Z,21.80
2023-04-22T12:43:19.312Z,21.82
2023-04-22T12:45:47.610Z,21.75
2023-04-22T12:48:16.212Z,21.81
2023-04-22T12:50:44.377Z,21.71
2023-04-22T12:53:13.967Z,21.44
2023-04-22T12:55:43.920Z,21.26
2023-04-22T12:58:13.524Z,21.19
2023-04-22T13:00:42.107Z,21.15
2023-04-22T13:03:10.299Z,21.23
2023-04-22T13:05:39.754Z,21.23
2023-04-22T13:08:08.342Z,21.31
2023-04-22T13:10:38.909Z,21.30
2023-04-22T13:15:39.557Z,21.21
2023-04-22T13:18:07.774Z,21.21
2023-04-22T13:20:36.134Z,21.20
2023-04-22T13:23:04.811Z,21.19
2023-04-22T13:25:33.144Z,21.22
2023-04-22T13:28:02.648Z,21.25
2023-04-22T13:30:30.808Z,21.32
2023-04-22T13:32:58.961Z,21.29
2023-04-22T13:35:27.099Z,21.25
2023-04-22T13:37:55.178Z,21.17
2023-04-22T13:40:23.540Z,21.06
2023-04-22T13:42:51.982Z,20.92
2023-04-22T13:45:21.542Z,20.89
2023-04-22T13:47:49.787Z,20.83
2023-04-22T13:50:17.908Z,20.70
2023-04-22T13:52:46.379Z,20.67
2023-04-22T13:55:15.232Z,20.60
2023-04-22T13:57:43.485Z,20.52
2023-04-22T14:00:12.508Z,20.51
2023-04-22T14:02:42.118Z,20.51
2023-04-22T14:05:10.917Z,20.53
2023-04-22T14:07:38.988Z,20.46
2023-04-22T14:10:08.613Z,20.43
2023-04-22T14:12:36.778Z,20.43
2023-04-22T14:15:06.415Z,20.48
2023-04-22T14:17:34.644Z,20.62
2023-04-22T14:20:05.174Z,20.76
2023-04-22T14:22:33.383Z,20.90
2023-04-22T14:25:02.048Z,21.01
2023-04-22T14:27:30.227Z,21.14
2023-04-22T14:29:58.359Z,21.11
2023-04-22T14:32:26.552Z,21.14
2023-04-22T14:34:54.701Z,21.00
2023-04-22T14:37:24.742Z,20.79
2023-04-22T14:39:52.894Z,20.78
2023-04-22T14:42:21.055Z,20.80
2023-04-22T14:44:49.191Z,20.71
2023-04-22T14:47:17.375Z,20.73
2023-04-22T14:49:45.749Z,20.65
2023-04-22T14:52:13.829Z,20.65
2023-04-22T14:54:43.398Z,20.74
2023-04-22T14:57:12.439Z,20.74
2023-04-22T14:59:40.986Z,20.79
2023-04-22T15:02:16.216Z,20.80
2023-04-22T15:04:44.406Z,20.81
2023-04-22T15:07:12.547Z,20.77
2023-04-22T15:09:40.933Z,20.66
2023-04-22T15:12:10.773Z,20.59
2023-04-22T15:14:39.613Z,20.55
2023-04-22T15:17:07.734Z,20.49
2023-04-22T15:19:36.339Z,20.53
2023-04-22T15:22:04.481Z,20.57
2023-04-22T15:24:32.646Z,20.67
2023-04-22T15:27:01.655Z,20.62
2023-04-22T15:29:32.300Z,20.46
2023-04-22T15:32:02.314Z,20.36
2023-04-22T15:34:30.575Z,20.38
2023-04-22T15:36:58.681Z,20.43
2023-04-22T15:39:26.863Z,20.51
2023-04-22T15:41:54.927Z,20.54
2023-04-22T15:44:23.640Z,20.45
2023-04-22T15:46:54.098Z,20.35
2023-04-22T15:49:22.256Z,20.36
2023-04-22T15:51:50.332Z,20.36
2023-04-22T15:54:18.491Z,20.32
2023-04-22T15:56:46.587Z,20.27
2023-04-22T15:59:15.081Z,20.19
2023-04-22T16:01:45.884Z,20.13
2023-04-22T16:04:16.141Z,20.09
2023-04-22T16:06:44.433Z,19.88
2023-04-22T16:09:12.573Z,19.70
2023-04-22T16:11:40.776Z,19.45
2023-04-22T16:14:10.903Z,19.29
2023-04-22T16:16:40.432Z,19.23
2023-04-22T16:19:08.783Z,19.18
2023-04-22T16:21:38.310Z,19.07
2023-04-22T16:24:07.028Z,18.92
2023-04-22T16:26:35.133Z,18.79
2023-04-22T16:29:04.284Z,18.68
2023-04-22T16:31:32.704Z,18.51
2023-04-22T16:34:00.958Z,18.39
2023-04-22T16:36:29.118Z,18.32
2023-04-22T16:38:58.771Z,18.22
2023-04-22T16:41:27.323Z,18.13
2023-04-22T16:43:55.453Z,18.03
2023-04-22T16:46:23.653Z,17.98
2023-04-22T16:48:51.774Z,17.91
2023-04-22T16:51:19.922Z,17.84
2023-04-22T16:53:48.080Z,17.77
2023-04-22T16:56:17.964Z,17.71
2023-04-22T16:58:46.083Z,17.65
2023-04-22T17:01:14.547Z,17.59
2023-04-22T17:03:43.222Z,17.52
2023-04-22T17:06:11.485Z,17.46
2023-04-22T17:08:40.016Z,17.42
2023-04-22T17:11:08.168Z,17.32
2023-04-22T17:13:37.682Z,17.24
2023-04-22T17:16:08.036Z,17.17
2023-04-22T17:18:36.216Z,17.15
2023-04-22T17:21:04.701Z,17.14
2023-04-22T17:23:32.805Z,17.14
2023-04-22T17:26:00.925Z,17.12
2023-04-22T17:28:29.014Z,17.03
2023-04-22T17:30:58.570Z,16.98
2023-04-22T17:33:26.940Z,16.98
2023-04-22T17:35:55.606Z,16.95
2023-04-22T17:38:23.709Z,16.90
2023-04-22T17:40:51.881Z,16.80
2023-04-22T17:43:19.970Z,16.74
2023-04-22T17:45:48.163Z,16.65
2023-04-22T17:48:18.030Z,16.59
2023-04-22T17:50:46.193Z,16.50
2023-04-22T17:53:14.417Z,16.43
2023-04-22T17:55:42.509Z,16.30
2023-04-22T17:58:10.701Z,16.16
2023-04-22T18:00:39.611Z,16.09
2023-04-22T18:03:07.899Z,16.03
2023-04-22T18:05:43.090Z,15.94
2023-04-22T18:08:11.356Z,15.85
2023-04-22T18:10:39.464Z,15.77
2023-04-22T18:13:07.596Z,15.70
2023-04-22T18:15:36.213Z,15.61
2023-04-22T18:18:04.475Z,15.57
2023-04-22T18:20:32.663Z,15.50
2023-04-22T18:23:02.164Z,15.39
2023-04-22T18:25:30.356Z,15.35
2023-04-22T18:27:59.851Z,15.28
2023-04-22T18:30:27.938Z,15.20
2023-04-22T18:32:56.126Z,15.14
2023-04-22T18:35:24.259Z,15.08
2023-04-22T18:37:52.867Z,14.98
2023-04-22T18:40:23.277Z,14.98
2023-04-22T18:42:51.893Z,14.95
2023-04-22T18:45:22.948Z,14.94
2023-04-22T18:47:51.431Z,14.92
2023-04-22T18:50:19.672Z,14.89
2023-04-22T18:52:48.380Z,14.87
2023-04-22T18:55:16.886Z,14.84
2023-04-22T18:57:46.476Z,14.78
2023-04-22T19:00:16.408Z,14.69
2023-04-22T19:02:45.724Z,14.63
2023-04-22T19:05:14.745Z,14.62
2023-04-22T19:07:44.982Z,14.60
2023-04-22T19:10:13.914Z,14.56
2023-04-22T19:12:42.056Z,14.52
2023-04-22T19:15:12.612Z,14.48
2023-04-22T19:17:42.561Z,14.42
2023-04-22T19:20:11.626Z,14.45
2023-04-22T19:22:39.749Z,14.44
2023-04-22T19:25:09.014Z,14.42
2023-04-22T19:27:37.079Z,14.43
2023-04-22T19:30:06.579Z,14.36
2023-04-22T19:32:36.147Z,14.31
2023-04-22T19:35:04.519Z,14.28
2023-04-22T19:37:34.088Z,14.26
2023-04-22T19:40:02.248Z,14.28
2023-04-22T19:42:30.721Z,14.36
2023-04-22T19:44:59.508Z,14.32
2023-04-22T19:47:27.988Z,14.37
2023-04-22T19:49:58.572Z,14.37
2023-04-22T19:52:27.098Z,14.36
2023-04-22T19:54:56.225Z,14.34
2023-04-22T19:57:24.867Z,14.37
2023-04-22T19:59:54.056Z,14.37
2023-04-22T20:02:23.852Z,14.37
2023-04-22T20:04:52.818Z,14.39
2023-04-22T20:07:22.439Z,14.36
2023-04-22T20:09:50.638Z,14.34
2023-04-22T20:12:18.866Z,14.37
2023-04-22T20:14:47.145Z,14.39
2023-04-22T20:17:16.001Z,14.41
2023-04-22T20:19:45.021Z,14.41
2023-04-22T20:22:14.767Z,14.41
2023-04-22T20:24:44.507Z,14.43
2023-04-22T20:27:12.798Z,14.38
2023-04-22T20:29:41.636Z,14.40
2023-04-22T20:32:11.412Z,14.38
2023-04-22T20:34:40.115Z,14.39
2023-04-22T20:37:10.375Z,14.40
2023-04-22T20:39:38.542Z,14.37
2023-04-22T20:42:10.733Z,14.37
2023-04-22T20:44:39.884Z,14.38
2023-04-22T20:47:08.512Z,14.45
2023-04-22T20:49:40.375Z,14.48
2023-04-22T20:52:09.285Z,14.48
2023-04-22T20:54:37.582Z,14.47
2023-04-22T20:57:07.585Z,14.53
2023-04-22T20:59:36.254Z,14.61
2023-04-22T21:02:06.736Z,14.61
2023-04-22T21:04:35.680Z,14.59
2023-04-22T21:07:06.657Z,14.60
2023-04-22T21:09:35.195Z,14.59
2023-04-22T21:12:04.273Z,14.53
2023-04-22T21:14:34.406Z,14.52
2023-04-22T21:17:04.401Z,14.48
2023-04-22T21:19:33.106Z,14.50
2023-04-22T21:22:02.781Z,14.48
2023-04-22T21:24:31.454Z,14.54
2023-04-22T21:27:00.242Z,14.56
2023-04-22T21:29:28.923Z,14.57
2023-04-22T21:32:08.177Z,14.50
2023-04-22T21:34:37.778Z,14.43
2023-04-22T21:37:06.272Z,14.42
2023-04-22T21:39:34.824Z,14.50
2023-04-22T21:42:07.508Z,14.58
2023-04-22T21:44:36.680Z,14.70
2023-04-22T21:47:06.565Z,14.75
2023-04-22T21:49:34.843Z,14.88
2023-04-22T21:52:02.936Z,14.91
2023-04-22T21:54:31.830Z,14.93
2023-04-22T21:56:59.968Z,14.92
2023-04-22T21:59:28.105Z,14.84
2023-04-22T22:01:56.319Z,14.82
2023-04-22T22:04:25.938Z,14.82
2023-04-22T22:06:54.443Z,14.82
2023-04-22T22:09:22.626Z,14.80
2023-04-22T22:11:50.725Z,14.83
2023-04-22T22:14:18.867Z,14.89
2023-04-22T22:16:47.128Z,14.95
2023-04-22T22:19:15.283Z,14.96
2023-04-22T22:21:44.820Z,14.96
2023-04-22T22:24:12.923Z,15.01
2023-04-22T22:26:42.895Z,15.04
2023-04-22T22:29:15.555Z,15.03
2023-04-22T22:31:43.978Z,15.03
2023-04-22T22:34:12.516Z,15.06
2023-04-22T22:36:41.266Z,15.06
2023-04-22T22:39:14.416Z,15.05
2023-04-22T22:41:44.076Z,15.03
2023-04-22T22:44:12.368Z,15.07
2023-04-22T22:46:41.133Z,15.06
2023-04-22T22:49:09.890Z,15.08
2023-04-22T22:51:38.481Z,15.02
2023-04-22T22:54:06.881Z,15.04
2023-04-22T22:56:36.462Z,14.98
2023-04-22T22:59:04.570Z,14.89
2023-04-22T23:01:32.771Z,14.85
2023-04-22T23:04:01.687Z,14.84
2023-04-22T23:06:30.020Z,14.83
2023-04-22T23:08:58.274Z,14.83
2023-04-22T23:11:26.442Z,14.81
2023-04-22T23:13:56.334Z,14.80
2023-04-22T23:16:24.954Z,14.80
2023-04-22T23:18:53.334Z,14.76
2023-04-22T23:21:21.557Z,14.68
2023-04-22T23:23:49.702Z,14.66
2023-04-22T23:26:18.404Z,14.60
2023-04-22T23:28:47.209Z,14.56
2023-04-22T23:31:17.206Z,14.55
2023-04-22T23:33:45.384Z,14.50
2023-04-22T23:36:14.326Z,14.53
2023-04-22T23:38:42.484Z,14.58
2023-04-22T23:41:10.639Z,14.64
2023-04-22T23:43:38.816Z,14.62
2023-04-22T23:46:07.281Z,14.67
2023-04-22T23:48:37.230Z,14.60
2023-04-22T23:51:05.524Z,14.58
2023-04-22T23:53:33.650Z,14.55
2023-04-22T23:56:02.293Z,14.53
2023-04-22T23:58:31.244Z,14.45
